EPRZ/RZE METAR and TAF weather

Enter ICAO airport designator
Station Type Date Time Source
EPRZ METAR 2020/09/27 16:30 UTC NOAA

EPRZ 271630Z 18007KT 150V210 9999 BKN023 12/09 Q1010


Station Type Date Time Source
EPRZ Decoded METAR 2020/09/27 16:30 UTC NOAA

Rzeszow-Jasionka, Poland (EPRZ) 50-06N 022-03E 202M
Sep 27, 2020 - 12:30 PM EDT / 2020.09.27 1630 UTC
Wind: from the S (180 degrees) at 8 MPH (7 KT) (direction variable):0
Visibility: greater than 7 mile(s):0
Sky conditions: mostly cloudy
Temperature: 53 F (12 C)
Dew Point: 48 F (9 C)
Relative Humidity: 81%
Pressure (altimeter): 29.83 in. Hg (1010 hPa)
ob: EPRZ 271630Z 18007KT 150V210 9999 BKN023 12/09 Q1010
cycle: 16

Station Type Date Time Source
EPRZ TAF 2020/09/27 12:33 UTC NOAA

TAF EPRZ 271130Z 2712/2812 24012KT 9999 SCT020
BECMG 2714/2717 18005KT
TEMPO 2722/2805 3000 BR
BECMG 2806/2809 08010KT

Example: see airport list